createdAt,value
2019-05-18T00:01:39.231Z,98704.17
2019-05-18T00:04:10.886Z,98710.98
2019-05-18T00:06:42.545Z,98714.02
2019-05-18T00:09:14.265Z,98714.02
2019-05-18T00:11:46.125Z,98716.20
2019-05-18T00:14:18.026Z,98722.06
2019-05-18T00:16:50.196Z,98715.23
2019-05-18T00:19:21.446Z,98715.23
2019-05-18T00:21:53.061Z,98720.06
2019-05-18T00:24:24.771Z,98719.77
2019-05-18T00:26:56.437Z,98725.88
2019-05-18T00:29:28.042Z,98726.11
2019-05-18T00:31:59.854Z,98731.44
2019-05-18T00:34:31.499Z,98734.74
2019-05-18T00:37:03.086Z,98734.74
2019-05-18T00:39:35.028Z,98744.57
2019-05-18T00:42:06.980Z,98745.77
2019-05-18T00:44:38.742Z,98745.77
2019-05-18T00:47:11.113Z,98754.73
2019-05-18T00:49:42.990Z,98757.56
2019-05-18T00:52:14.695Z,98760.52
2019-05-18T00:54:46.489Z,98761.94
2019-05-18T00:57:18.065Z,98760.80
2019-05-18T00:59:52.571Z,98754.84
2019-05-18T01:02:24.425Z,98760.51
2019-05-18T01:04:55.906Z,98773.54
2019-05-18T01:07:27.520Z,98775.54
2019-05-18T01:09:59.308Z,98779.84
2019-05-18T01:12:30.820Z,98782.80
2019-05-18T01:15:02.463Z,98781.94
2019-05-18T01:17:35.615Z,98795.09
2019-05-18T01:20:08.007Z,98794.86
2019-05-18T01:22:39.759Z,98794.86
2019-05-18T01:25:11.609Z,98796.80
2019-05-18T01:27:43.517Z,98805.39
2019-05-18T01:30:16.323Z,98801.56
2019-05-18T01:32:47.790Z,98792.69
2019-05-18T01:35:20.805Z,98799.30
2019-05-18T01:37:52.084Z,98804.76
2019-05-18T01:40:23.719Z,98804.76
2019-05-18T01:42:55.467Z,98808.25
2019-05-18T01:45:27.096Z,98808.25
2019-05-18T01:48:12.584Z,98805.49
2019-05-18T01:50:32.668Z,98806.53
2019-05-18T01:53:04.494Z,98808.24
2019-05-18T01:55:36.260Z,98819.67
2019-05-18T01:58:09.278Z,98821.11
2019-05-18T02:00:41.301Z,98825.66
2019-05-18T02:03:14.067Z,98827.19
2019-05-18T02:05:45.989Z,98828.64
2019-05-18T02:08:17.314Z,98827.63
2019-05-18T02:10:48.987Z,98823.80
2019-05-18T02:13:21.860Z,98823.80
2019-05-18T02:15:53.548Z,98830.97
2019-05-18T02:18:29.104Z,98823.48
2019-05-18T02:20:59.324Z,98826.02
2019-05-18T02:23:31.072Z,98826.68
2019-05-18T02:26:02.434Z,98836.08
2019-05-18T02:28:34.545Z,98835.25
2019-05-18T02:31:06.441Z,98843.05
2019-05-18T02:33:38.116Z,98838.70
2019-05-18T02:36:09.808Z,98838.70
2019-05-18T02:38:41.536Z,98838.29
2019-05-18T02:41:13.130Z,98829.88
2019-05-18T02:43:44.920Z,98829.88
2019-05-18T02:46:16.589Z,98839.89
2019-05-18T02:48:50.663Z,98833.66
2019-05-18T02:51:21.899Z,98837.47
2019-05-18T02:53:53.492Z,98840.13
2019-05-18T02:56:25.054Z,98844.43
2019-05-18T02:58:56.638Z,98851.95
2019-05-18T03:01:28.450Z,98864.70
2019-05-18T03:04:00.389Z,98864.75
2019-05-18T03:06:32.119Z,98863.38
2019-05-18T03:09:05.452Z,98863.38
2019-05-18T03:11:37.547Z,98873.67
2019-05-18T03:14:12.364Z,98878.63
2019-05-18T03:16:43.831Z,98878.63
2019-05-18T03:19:15.592Z,98878.88
2019-05-18T03:21:47.341Z,98878.88
2019-05-18T03:24:19.129Z,98881.98
2019-05-18T03:26:50.737Z,98879.52
2019-05-18T03:29:22.593Z,98879.52
2019-05-18T03:31:54.385Z,98882.44
2019-05-18T03:34:25.796Z,98882.44
2019-05-18T03:36:57.227Z,98893.20
2019-05-18T03:39:29.321Z,98895.66
2019-05-18T03:42:01.033Z,98900.45
2019-05-18T03:44:33.026Z,98903.70
2019-05-18T03:47:04.297Z,98903.70
2019-05-18T03:49:38.943Z,98904.72
2019-05-18T03:52:10.536Z,98911.36
2019-05-18T03:54:42.498Z,98903.98
2019-05-18T03:57:14.075Z,98907.48
2019-05-18T03:59:47.419Z,98907.48
2019-05-18T04:02:19.324Z,98917.48
2019-05-18T04:04:51.501Z,98911.45
2019-05-18T04:07:23.230Z,98917.78
2019-05-18T04:09:55.174Z,98917.78
2019-05-18T04:12:27.131Z,98915.66
2019-05-18T04:14:58.736Z,98918.66
2019-05-18T04:17:30.523Z,98925.18
2019-05-18T04:20:03.845Z,98922.64
2019-05-18T04:22:35.598Z,98924.22
2019-05-18T04:25:08.343Z,98914.75
2019-05-18T04:27:40.087Z,98920.78
2019-05-18T04:30:12.021Z,98921.05
2019-05-18T04:32:43.886Z,98921.05
2019-05-18T04:35:16.023Z,98912.80
2019-05-18T04:37:47.784Z,98925.27
2019-05-18T04:40:19.829Z,98923.15
2019-05-18T04:42:51.801Z,98923.15
2019-05-18T04:45:23.574Z,98923.30
2019-05-18T04:47:55.300Z,98918.76
2019-05-18T04:50:27.389Z,98918.98
2019-05-18T04:52:59.986Z,98922.39
2019-05-18T04:55:31.210Z,98921.58
2019-05-18T04:58:03.013Z,98907.49
2019-05-18T05:00:34.375Z,98898.80
2019-05-18T05:03:07.619Z,98898.80
2019-05-18T05:05:39.215Z,98902.26
2019-05-18T05:08:11.124Z,98897.67
2019-05-18T05:10:42.649Z,98900.67
2019-05-18T05:13:14.131Z,98904.22
2019-05-18T05:15:46.995Z,98907.73
2019-05-18T05:18:19.172Z,98907.73
2019-05-18T05:20:51.247Z,98901.95
2019-05-18T05:23:22.850Z,98904.59
2019-05-18T05:25:54.530Z,98906.84
2019-05-18T05:28:26.140Z,98900.74
2019-05-18T05:30:57.788Z,98900.74
2019-05-18T05:33:29.333Z,98910.55
2019-05-18T05:36:00.886Z,98902.87
2019-05-18T05:38:32.451Z,98896.36
2019-05-18T05:41:05.041Z,98897.09
2019-05-18T05:43:36.551Z,98897.10
2019-05-18T05:46:08.124Z,98897.10
2019-05-18T05:48:40.650Z,98884.38
2019-05-18T05:51:12.390Z,98890.58
2019-05-18T05:53:43.891Z,98890.15
2019-05-18T05:56:15.533Z,98889.03
2019-05-18T05:58:46.872Z,98887.91
2019-05-18T06:01:18.802Z,98882.70
2019-05-18T06:03:50.895Z,98882.70
2019-05-18T06:06:23.176Z,98875.37
2019-05-18T06:08:55.225Z,98873.23
2019-05-18T06:11:27.019Z,98881.16
2019-05-18T06:13:58.879Z,98868.28
2019-05-18T06:16:30.254Z,98860.79
2019-05-18T06:19:01.979Z,98859.62
2019-05-18T06:21:34.011Z,98859.62
2019-05-18T06:24:05.774Z,98846.66
2019-05-18T06:26:37.686Z,98846.66
2019-05-18T06:29:09.320Z,98844.77
2019-05-18T06:31:40.910Z,98839.95
2019-05-18T06:34:13.149Z,98842.70
2019-05-18T06:36:45.233Z,98844.16
2019-05-18T06:39:16.773Z,98836.41
2019-05-18T06:41:48.501Z,98839.23
2019-05-18T06:44:20.198Z,98839.23
2019-05-18T06:46:51.974Z,98820.78
2019-05-18T06:49:23.823Z,98820.78
2019-05-18T06:51:56.018Z,98825.63
2019-05-18T06:54:27.640Z,98820.00
2019-05-18T06:57:00.171Z,98813.70
2019-05-18T06:59:32.490Z,98801.03
2019-05-18T07:02:03.833Z,98801.03
2019-05-18T07:04:36.209Z,98801.71
2019-05-18T07:07:07.884Z,98801.71
2019-05-18T07:09:39.511Z,98800.29
2019-05-18T07:12:11.252Z,98795.13
2019-05-18T07:14:43.081Z,98791.73
2019-05-18T07:17:14.781Z,98782.91
2019-05-18T07:19:47.027Z,98782.91
2019-05-18T07:22:19.097Z,98786.14
2019-05-18T07:24:50.540Z,98788.87
2019-05-18T07:27:22.264Z,98780.77
2019-05-18T07:29:54.025Z,98777.69
2019-05-18T07:32:25.594Z,98760.64
2019-05-18T07:34:57.144Z,98760.64
2019-05-18T07:37:28.965Z,98758.56
2019-05-18T07:40:00.920Z,98759.02
2019-05-18T07:42:32.661Z,98751.88
2019-05-18T07:45:12.558Z,98759.59
2019-05-18T07:47:44.651Z,98757.52
2019-05-18T07:50:17.386Z,98753.25
2019-05-18T07:52:49.187Z,98743.92
2019-05-18T07:55:20.759Z,98748.21
2019-05-18T07:57:52.976Z,98743.50
2019-05-18T08:00:24.712Z,98734.92
2019-05-18T08:02:56.465Z,98732.35
2019-05-18T08:05:29.018Z,98732.59
2019-05-18T08:08:01.780Z,98734.57
2019-05-18T08:10:43.748Z,98734.57
2019-05-18T08:13:15.877Z,98728.38
2019-05-18T08:15:47.668Z,98723.70
2019-05-18T08:18:19.360Z,98731.94
2019-05-18T08:20:51.140Z,98727.73
2019-05-18T08:23:23.253Z,98724.16
2019-05-18T08:25:54.802Z,98719.24
2019-05-18T08:28:26.566Z,98714.55
2019-05-18T08:30:58.398Z,98712.33
2019-05-18T08:33:31.098Z,98710.72
2019-05-18T08:36:02.696Z,98724.02
2019-05-18T08:38:33.962Z,98715.09
2019-05-18T08:41:05.667Z,98723.32
2019-05-18T08:43:38.375Z,98721.48
2019-05-18T08:46:09.902Z,98715.30
2019-05-18T08:48:44.396Z,98709.98
2019-05-18T08:51:15.856Z,98708.77
2019-05-18T08:53:47.510Z,98708.25
2019-05-18T08:56:19.176Z,98699.73
2019-05-18T08:58:50.696Z,98698.97
2019-05-18T09:01:21.976Z,98698.97
2019-05-18T09:03:53.601Z,98699.05
2019-05-18T09:06:25.378Z,98691.31
2019-05-18T09:08:57.290Z,98690.50
2019-05-18T09:11:28.683Z,98686.03
2019-05-18T09:14:00.532Z,98685.30
2019-05-18T09:16:31.749Z,98687.87
2019-05-18T09:19:03.269Z,98675.29
2019-05-18T09:21:34.529Z,98675.29
2019-05-18T09:24:06.944Z,98659.91
2019-05-18T09:26:38.746Z,98666.33
2019-05-18T09:29:10.404Z,98658.66
2019-05-18T09:31:41.869Z,98649.77
2019-05-18T09:34:13.444Z,98650.73
2019-05-18T09:36:45.010Z,98650.47
2019-05-18T09:39:17.031Z,98650.47
2019-05-18T09:41:48.633Z,98638.41
2019-05-18T09:44:20.082Z,98641.81
2019-05-18T09:46:51.854Z,98641.81
2019-05-18T09:49:23.619Z,98631.35
2019-05-18T09:51:55.165Z,98631.35
2019-05-18T09:54:27.333Z,98626.08
2019-05-18T09:56:59.091Z,98628.25
2019-05-18T09:59:33.558Z,98628.25
2019-05-18T10:02:05.397Z,98625.46
2019-05-18T10:04:37.020Z,98625.61
2019-05-18T10:07:08.898Z,98625.61
2019-05-18T10:09:40.387Z,98619.84
2019-05-18T10:12:11.869Z,98615.36
2019-05-18T10:14:43.955Z,98625.45
2019-05-18T10:17:15.191Z,98621.23
2019-05-18T10:19:46.658Z,98626.22
2019-05-18T10:22:18.407Z,98621.68
2019-05-18T10:24:50.468Z,98620.03
2019-05-18T10:27:22.319Z,98621.00
2019-05-18T10:29:53.923Z,98616.31
2019-05-18T10:32:25.378Z,98613.36
2019-05-18T10:34:58.423Z,98613.36
2019-05-18T10:37:29.669Z,98613.34
2019-05-18T10:40:01.323Z,98617.67
2019-05-18T10:42:33.305Z,98608.01
2019-05-18T10:45:05.241Z,98609.18
2019-05-18T10:47:36.551Z,98612.20
2019-05-18T10:50:08.989Z,98604.70
2019-05-18T10:52:40.313Z,98599.96
2019-05-18T10:55:12.478Z,98597.99
2019-05-18T10:57:44.141Z,98600.52
2019-05-18T11:00:15.954Z,98598.97
2019-05-18T11:02:47.765Z,98600.20
2019-05-18T11:05:19.592Z,98597.11
2019-05-18T11:07:52.041Z,98600.27
2019-05-18T11:10:23.715Z,98589.17
2019-05-18T11:12:55.448Z,98589.17
2019-05-18T11:15:27.024Z,98598.03
2019-05-18T11:17:58.397Z,98594.23
2019-05-18T11:20:29.988Z,98590.86
2019-05-18T11:23:01.455Z,98584.06
2019-05-18T11:25:32.960Z,98593.81
2019-05-18T11:28:05.561Z,98593.81
2019-05-18T11:30:37.096Z,98590.26
2019-05-18T11:33:08.569Z,98590.26
2019-05-18T11:36:01.281Z,98597.66
2019-05-18T11:38:32.963Z,98592.86
2019-05-18T11:41:04.762Z,98596.59
2019-05-18T11:43:38.645Z,98593.72
2019-05-18T11:46:10.479Z,98588.52
2019-05-18T11:48:41.982Z,98587.59
2019-05-18T11:51:13.389Z,98582.30
2019-05-18T11:53:57.513Z,98589.95
2019-05-18T11:56:18.661Z,98589.76
2019-05-18T11:58:50.724Z,98587.72
2019-05-18T12:01:22.410Z,98590.59
2019-05-18T12:03:53.961Z,98595.70
2019-05-18T12:06:25.673Z,98593.17
2019-05-18T12:08:58.697Z,98599.33
2019-05-18T12:11:30.452Z,98599.33
2019-05-18T12:14:01.948Z,98602.69
2019-05-18T12:16:33.861Z,98601.05
2019-05-18T12:19:05.226Z,98594.36
2019-05-18T12:21:38.448Z,98605.16
2019-05-18T12:24:15.461Z,98608.30
2019-05-18T12:26:43.857Z,98601.63
2019-05-18T12:29:15.443Z,98601.84
2019-05-18T12:31:47.098Z,98600.16
2019-05-18T12:34:18.602Z,98612.92
2019-05-18T12:36:50.049Z,98612.70
2019-05-18T12:39:21.311Z,98612.70
2019-05-18T12:41:52.754Z,98612.42
2019-05-18T12:44:24.256Z,98612.94
2019-05-18T12:46:55.927Z,98612.94
2019-05-18T12:49:27.799Z,98618.77
2019-05-18T12:51:59.223Z,98622.58
2019-05-18T12:54:45.323Z,98618.23
2019-05-18T12:57:04.369Z,98625.22
2019-05-18T12:59:36.045Z,98625.22
2019-05-18T13:02:07.600Z,98622.66
2019-05-18T13:04:41.746Z,98626.86
2019-05-18T13:07:12.110Z,98624.00
2019-05-18T13:09:43.873Z,98627.17
2019-05-18T13:12:15.338Z,98627.05
2019-05-18T13:14:46.524Z,98624.55
2019-05-18T13:17:21.188Z,98622.44
2019-05-18T13:19:51.710Z,98628.48
2019-05-18T13:22:23.299Z,98633.92
2019-05-18T13:24:54.779Z,98625.03
2019-05-18T13:27:38.679Z,98624.61
2019-05-18T13:30:01.389Z,98627.69
2019-05-18T13:32:32.986Z,98626.40
2019-05-18T13:35:06.032Z,98626.40
2019-05-18T13:37:37.734Z,98632.59
2019-05-18T13:40:09.855Z,98623.34
2019-05-18T13:42:41.331Z,98632.78
2019-05-18T13:45:14.644Z,98632.78
2019-05-18T13:47:46.118Z,98631.75
2019-05-18T13:50:19.039Z,98637.12
2019-05-18T13:52:50.484Z,98636.81
2019-05-18T13:55:22.054Z,98636.81
2019-05-18T13:57:54.045Z,98641.38
2019-05-18T14:00:25.646Z,98644.13
2019-05-18T14:02:57.357Z,98644.87
2019-05-18T14:05:28.763Z,98644.87
2019-05-18T14:08:00.252Z,98650.89
2019-05-18T14:10:31.728Z,98655.53
2019-05-18T14:13:05.598Z,98655.53
2019-05-18T14:15:37.612Z,98658.08
2019-05-18T14:18:09.098Z,98658.08
2019-05-18T14:20:40.814Z,98657.64
2019-05-18T14:23:12.583Z,98658.08
2019-05-18T14:26:04.225Z,98661.21
2019-05-18T14:28:35.963Z,98660.78
2019-05-18T14:31:07.661Z,98664.91
2019-05-18T14:33:39.291Z,98664.91
2019-05-18T14:36:11.219Z,98673.64
2019-05-18T14:38:42.810Z,98673.64
2019-05-18T14:41:14.116Z,98673.14
2019-05-18T14:43:45.443Z,98682.17
2019-05-18T14:46:16.804Z,98686.77
2019-05-18T14:48:48.154Z,98700.73
2019-05-18T14:51:19.988Z,98696.63
2019-05-18T14:53:51.714Z,98696.63
2019-05-18T14:56:23.379Z,98702.49
2019-05-18T14:58:54.766Z,98706.14
2019-05-18T15:01:26.692Z,98706.33
2019-05-18T15:03:58.537Z,98709.89
2019-05-18T15:06:30.632Z,98709.89
2019-05-18T15:09:02.026Z,98705.67
2019-05-18T15:11:33.915Z,98717.17
2019-05-18T15:14:05.506Z,98717.17
2019-05-18T15:16:37.272Z,98721.09
2019-05-18T15:19:09.078Z,98721.30
2019-05-18T15:21:40.843Z,98721.56
2019-05-18T15:24:12.589Z,98735.36
2019-05-18T15:26:44.365Z,98735.36
2019-05-18T15:29:16.328Z,98740.44
2019-05-18T15:31:47.924Z,98736.34
2019-05-18T15:34:19.342Z,98744.95
2019-05-18T15:36:52.459Z,98748.35
2019-05-18T15:39:23.931Z,98750.87
2019-05-18T15:41:55.288Z,98755.28
2019-05-18T15:44:28.240Z,98755.28
2019-05-18T15:46:59.696Z,98752.51
2019-05-18T15:49:31.456Z,98760.34
2019-05-18T15:52:03.108Z,98757.89
2019-05-18T15:54:36.168Z,98763.17
2019-05-18T15:57:09.290Z,98769.57
2019-05-18T15:59:42.942Z,98777.22
2019-05-18T16:02:16.969Z,98777.22
2019-05-18T16:04:49.609Z,98769.19
2019-05-18T16:07:21.474Z,98768.36
2019-05-18T16:09:53.399Z,98774.48
2019-05-18T16:12:24.992Z,98769.97
2019-05-18T16:14:56.710Z,98774.55
2019-05-18T16:17:38.906Z,98776.75
2019-05-18T16:20:01.798Z,98782.92
2019-05-18T16:22:33.413Z,98782.92
2019-05-18T16:25:05.265Z,98787.60
2019-05-18T16:27:38.896Z,98777.98
2019-05-18T16:30:11.712Z,98777.98
2019-05-18T16:32:43.258Z,98780.98
2019-05-18T16:35:14.945Z,98780.98
2019-05-18T16:37:46.907Z,98777.34
2019-05-18T16:40:18.474Z,98777.34
2019-05-18T16:42:50.188Z,98774.30
2019-05-18T16:45:21.979Z,98778.12
2019-05-18T16:47:53.612Z,98782.09
2019-05-18T16:50:25.357Z,98779.80
2019-05-18T16:53:00.661Z,98781.81
2019-05-18T16:55:32.293Z,98778.52
2019-05-18T16:58:03.772Z,98784.86
2019-05-18T17:00:35.768Z,98784.86
2019-05-18T17:03:07.633Z,98782.24
2019-05-18T17:05:39.980Z,98781.70
2019-05-18T17:08:11.510Z,98779.20
2019-05-18T17:10:43.133Z,98778.86
2019-05-18T17:13:15.013Z,98774.25
2019-05-18T17:15:47.002Z,98774.25
2019-05-18T17:18:18.843Z,98775.58
2019-05-18T17:20:51.273Z,98777.52
2019-05-18T17:23:22.752Z,98774.78
2019-05-18T17:25:54.537Z,98774.09
2019-05-18T17:28:25.895Z,98778.12
2019-05-18T17:30:57.675Z,98778.12
2019-05-18T17:33:29.229Z,98772.46
2019-05-18T17:36:01.043Z,98769.34
2019-05-18T17:38:32.483Z,98762.01
2019-05-18T17:41:04.449Z,98750.34
2019-05-18T17:43:35.825Z,98750.34
2019-05-18T17:46:07.555Z,98749.22
2019-05-18T17:48:39.262Z,98743.67
2019-05-18T17:51:11.142Z,98745.67
2019-05-18T17:53:45.673Z,98745.42
2019-05-18T17:56:18.905Z,98747.64
2019-05-18T17:58:50.733Z,98747.64
2019-05-18T18:01:22.455Z,98752.09
2019-05-18T18:03:54.077Z,98741.14
2019-05-18T18:06:25.765Z,98741.14
2019-05-18T18:08:57.638Z,98735.13
2019-05-18T18:11:29.512Z,98735.13
2019-05-18T18:14:01.247Z,98735.95
2019-05-18T18:16:33.282Z,98735.95
2019-05-18T18:19:05.082Z,98737.66
2019-05-18T18:21:37.156Z,98720.98
2019-05-18T18:24:09.471Z,98713.91
2019-05-18T18:26:41.490Z,98713.91
2019-05-18T18:29:12.973Z,98716.46
2019-05-18T18:31:44.875Z,98716.88
2019-05-18T18:34:16.296Z,98715.10
2019-05-18T18:36:48.512Z,98709.78
2019-05-18T18:39:19.813Z,98704.44
2019-05-18T18:41:51.293Z,98705.11
2019-05-18T18:44:23.068Z,98702.98
2019-05-18T18:46:55.171Z,98699.32
2019-05-18T18:49:26.796Z,98696.34
2019-05-18T18:51:58.615Z,98698.61
2019-05-18T18:54:30.231Z,98693.28
2019-05-18T18:57:01.782Z,98693.28
2019-05-18T18:59:33.554Z,98687.84
2019-05-18T19:02:06.009Z,98681.11
2019-05-18T19:04:37.281Z,98680.56
2019-05-18T19:07:09.296Z,98680.56
2019-05-18T19:09:40.584Z,98676.91
2019-05-18T19:12:12.479Z,98676.59
2019-05-18T19:14:44.208Z,98676.59
2019-05-18T19:17:15.935Z,98677.11
2019-05-18T19:19:47.640Z,98671.93
2019-05-18T19:22:18.958Z,98667.64
2019-05-18T19:24:51.058Z,98667.98
2019-05-18T19:27:22.548Z,98672.65
2019-05-18T19:29:53.913Z,98670.77
2019-05-18T19:32:25.976Z,98665.48
2019-05-18T19:34:57.598Z,98671.19
2019-05-18T19:37:29.052Z,98660.91
2019-05-18T19:40:00.796Z,98663.40
2019-05-18T19:42:32.151Z,98668.19
2019-05-18T19:45:03.898Z,98659.52
2019-05-18T19:47:35.650Z,98664.20
2019-05-18T19:50:07.537Z,98665.57
2019-05-18T19:52:39.771Z,98658.59
2019-05-18T19:55:11.426Z,98667.91
2019-05-18T19:57:42.855Z,98660.11
2019-05-18T20:00:14.711Z,98655.74
2019-05-18T20:02:47.046Z,98665.25
2019-05-18T20:05:19.007Z,98661.45
2019-05-18T20:07:51.143Z,98661.80
2019-05-18T20:10:22.697Z,98671.62
2019-05-18T20:12:54.385Z,98673.13
2019-05-18T20:15:26.033Z,98670.16
2019-05-18T20:17:57.378Z,98677.45
2019-05-18T20:20:28.952Z,98672.70
2019-05-18T20:23:00.689Z,98676.33
2019-05-18T20:25:32.359Z,98676.33
2019-05-18T20:28:04.246Z,98679.27
2019-05-18T20:30:35.927Z,98679.75
2019-05-18T20:33:08.149Z,98679.95
2019-05-18T20:35:40.099Z,98679.69
2019-05-18T20:38:11.961Z,98679.95
2019-05-18T20:40:43.420Z,98674.36
2019-05-18T20:43:15.175Z,98667.66
2019-05-18T20:45:46.701Z,98664.37
2019-05-18T20:48:18.718Z,98671.03
2019-05-18T20:50:50.268Z,98668.80
2019-05-18T20:53:22.189Z,98664.00
2019-05-18T20:55:53.580Z,98672.06
2019-05-18T20:58:38.713Z,98668.73
2019-05-18T21:00:58.345Z,98664.11
2019-05-18T21:03:30.366Z,98661.81
2019-05-18T21:06:01.580Z,98661.81
2019-05-18T21:08:33.015Z,98663.80
2019-05-18T21:11:04.597Z,98658.84
2019-05-18T21:13:37.156Z,98661.52
2019-05-18T21:16:08.469Z,98663.16
2019-05-18T21:18:41.498Z,98658.28
2019-05-18T21:21:13.977Z,98661.34
2019-05-18T21:23:45.619Z,98653.51
2019-05-18T21:26:17.363Z,98653.37
2019-05-18T21:28:59.168Z,98651.23
2019-05-18T21:31:23.116Z,98652.84
2019-05-18T21:33:55.911Z,98658.34
2019-05-18T21:36:27.681Z,98650.63
2019-05-18T21:38:59.231Z,98650.63
2019-05-18T21:41:30.773Z,98659.87
2019-05-18T21:44:02.301Z,98650.94
2019-05-18T21:46:34.132Z,98653.73
2019-05-18T21:49:05.584Z,98649.27
2019-05-18T21:51:36.979Z,98649.09
2019-05-18T21:54:08.536Z,98648.30
2019-05-18T21:56:39.860Z,98648.30
2019-05-18T21:59:12.555Z,98645.31
2019-05-18T22:01:44.076Z,98637.27
2019-05-18T22:04:15.829Z,98637.27
2019-05-18T22:06:47.565Z,98643.44
2019-05-18T22:09:18.909Z,98642.27
2019-05-18T22:11:50.430Z,98644.64
2019-05-18T22:14:21.783Z,98638.97
2019-05-18T22:16:53.845Z,98637.02
2019-05-18T22:19:25.296Z,98634.33
2019-05-18T22:21:56.980Z,98632.52
2019-05-18T22:24:29.535Z,98633.30
2019-05-18T22:27:01.224Z,98635.23
2019-05-18T22:29:32.484Z,98635.61
2019-05-18T22:32:04.167Z,98631.99
2019-05-18T22:34:37.677Z,98634.83
2019-05-18T22:37:09.344Z,98636.58
2019-05-18T22:39:40.690Z,98639.13
2019-05-18T22:42:12.441Z,98641.94
2019-05-18T22:44:43.932Z,98633.12
2019-05-18T22:47:15.577Z,98630.27
2019-05-18T22:49:47.199Z,98633.61
2019-05-18T22:52:18.942Z,98629.33
2019-05-18T22:54:50.466Z,98637.63
2019-05-18T22:57:22.099Z,98636.47
2019-05-18T22:59:53.888Z,98643.64
2019-05-18T23:02:26.095Z,98643.64
2019-05-18T23:04:57.959Z,98641.63
2019-05-18T23:07:29.487Z,98640.98
2019-05-18T23:10:01.216Z,98639.34
2019-05-18T23:12:34.227Z,98639.34
2019-05-18T23:15:06.333Z,98641.16
2019-05-18T23:17:38.142Z,98641.16
2019-05-18T23:20:09.901Z,98648.83
2019-05-18T23:22:41.633Z,98648.83
2019-05-18T23:25:13.783Z,98655.64
2019-05-18T23:27:45.566Z,98652.64
2019-05-18T23:30:17.136Z,98656.62
2019-05-18T23:32:50.471Z,98667.77
2019-05-18T23:35:22.897Z,98672.10
2019-05-18T23:37:54.642Z,98679.89
2019-05-18T23:40:26.412Z,98676.08
2019-05-18T23:42:58.261Z,98675.76
2019-05-18T23:45:29.846Z,98681.42
2019-05-18T23:48:01.455Z,98677.42
2019-05-18T23:50:33.205Z,98685.88
2019-05-18T23:53:04.867Z,98692.20
2019-05-18T23:55:37.994Z,98692.20
2019-05-18T23:58:10.805Z,98697.05
